sensor_id;sensor_type;location;lat;lon;timestamp;temperature;humidity
5617;DHT22;2830;50.656;7.568;2023-04-03T00:00:38;3.80;96.50
5617;DHT22;2830;50.656;7.568;2023-04-03T00:03:05;3.80;98.00
5617;DHT22;2830;50.656;7.568;2023-04-03T00:05:32;3.80;98.90
5617;DHT22;2830;50.656;7.568;2023-04-03T00:07:58;3.80;98.80
5617;DHT22;2830;50.656;7.568;2023-04-03T00:10:25;3.80;98.90
5617;DHT22;2830;50.656;7.568;2023-04-03T00:12:52;3.80;99.00
5617;DHT22;2830;50.656;7.568;2023-04-03T00:15:19;3.80;98.70
5617;DHT22;2830;50.656;7.568;2023-04-03T00:17:45;3.80;99.00
5617;DHT22;2830;50.656;7.568;2023-04-03T00:20:12;3.80;98.40
5617;DHT22;2830;50.656;7.568;2023-04-03T00:22:39;3.80;98.40
5617;DHT22;2830;50.656;7.568;2023-04-03T00:25:06;3.70;98.70
5617;DHT22;2830;50.656;7.568;2023-04-03T00:27:33;3.70;99.00
5617;DHT22;2830;50.656;7.568;2023-04-03T00:30:02;3.70;99.30
5617;DHT22;2830;50.656;7.568;2023-04-03T00:32:29;3.70;99.20
5617;DHT22;2830;50.656;7.568;2023-04-03T00:34:56;3.70;99.60
5617;DHT22;2830;50.656;7.568;2023-04-03T00:37:23;3.70;99.90
5617;DHT22;2830;50.656;7.568;2023-04-03T00:39:49;3.70;99.90
5617;DHT22;2830;50.656;7.568;2023-04-03T00:42:16;3.70;99.90
5617;DHT22;2830;50.656;7.568;2023-04-03T00:47:16;3.80;99.90
5617;DHT22;2830;50.656;7.568;2023-04-03T00:49:43;3.70;99.90
5617;DHT22;2830;50.656;7.568;2023-04-03T00:52:15;3.70;99.90
5617;DHT22;2830;50.656;7.568;2023-04-03T00:54:43;3.70;99.90
5617;DHT22;2830;50.656;7.568;2023-04-03T00:57:11;3.70;99.90
5617;DHT22;2830;50.656;7.568;2023-04-03T00:59:42;3.70;99.90
5617;DHT22;2830;50.656;7.568;2023-04-03T01:02:10;3.60;99.90
5617;DHT22;2830;50.656;7.568;2023-04-03T01:04:39;3.60;99.90
5617;DHT22;2830;50.656;7.568;2023-04-03T01:07:15;3.60;99.70
5617;DHT22;2830;50.656;7.568;2023-04-03T01:09:43;3.60;98.90
5617;DHT22;2830;50.656;7.568;2023-04-03T01:12:25;3.60;98.90
5617;DHT22;2830;50.656;7.568;2023-04-03T01:14:55;3.70;99.00
5617;DHT22;2830;50.656;7.568;2023-04-03T01:17:35;3.60;99.10
5617;DHT22;2830;50.656;7.568;2023-04-03T01:25:33;3.60;98.60
5617;DHT22;2830;50.656;7.568;2023-04-03T01:28:00;3.60;98.80
5617;DHT22;2830;50.656;7.568;2023-04-03T01:30:33;3.60;98.70
5617;DHT22;2830;50.656;7.568;2023-04-03T01:33:01;3.50;99.50
5617;DHT22;2830;50.656;7.568;2023-04-03T01:35:28;3.50;99.90
5617;DHT22;2830;50.656;7.568;2023-04-03T01:37:55;3.60;99.90
5617;DHT22;2830;50.656;7.568;2023-04-03T01:40:21;3.60;99.90
5617;DHT22;2830;50.656;7.568;2023-04-03T01:42:48;3.50;99.40
5617;DHT22;2830;50.656;7.568;2023-04-03T01:45:15;3.50;99.50
5617;DHT22;2830;50.656;7.568;2023-04-03T01:47:41;3.50;99.90
5617;DHT22;2830;50.656;7.568;2023-04-03T01:50:08;3.50;99.90
5617;DHT22;2830;50.656;7.568;2023-04-03T01:52:35;3.60;99.90
5617;DHT22;2830;50.656;7.568;2023-04-03T01:55:02;3.50;99.90
5617;DHT22;2830;50.656;7.568;2023-04-03T01:57:29;3.40;99.90
5617;DHT22;2830;50.656;7.568;2023-04-03T01:59:55;3.40;99.90
5617;DHT22;2830;50.656;7.568;2023-04-03T02:02:22;3.40;99.90
5617;DHT22;2830;50.656;7.568;2023-04-03T02:04:49;3.40;99.90
5617;DHT22;2830;50.656;7.568;2023-04-03T02:07:15;3.40;99.90
5617;DHT22;2830;50.656;7.568;2023-04-03T02:09:42;3.40;99.90
5617;DHT22;2830;50.656;7.568;2023-04-03T02:12:08;3.30;99.90
5617;DHT22;2830;50.656;7.568;2023-04-03T02:14:35;3.30;99.70
5617;DHT22;2830;50.656;7.568;2023-04-03T02:17:02;3.30;99.50
5617;DHT22;2830;50.656;7.568;2023-04-03T02:19:31;3.30;99.40
5617;DHT22;2830;50.656;7.568;2023-04-03T02:21:58;3.30;99.30
5617;DHT22;2830;50.656;7.568;2023-04-03T02:24:24;3.30;98.90
5617;DHT22;2830;50.656;7.568;2023-04-03T02:26:51;3.20;98.80
5617;DHT22;2830;50.656;7.568;2023-04-03T02:29:18;3.20;98.90
5617;DHT22;2830;50.656;7.568;2023-04-03T02:31:45;3.10;99.00
5617;DHT22;2830;50.656;7.568;2023-04-03T02:34:11;3.00;99.50
5617;DHT22;2830;50.656;7.568;2023-04-03T02:36:38;3.00;99.90
5617;DHT22;2830;50.656;7.568;2023-04-03T02:39:05;3.00;99.90
5617;DHT22;2830;50.656;7.568;2023-04-03T02:41:31;3.00;99.90
5617;DHT22;2830;50.656;7.568;2023-04-03T02:44:03;3.00;99.90
5617;DHT22;2830;50.656;7.568;2023-04-03T02:46:29;2.90;99.90
5617;DHT22;2830;50.656;7.568;2023-04-03T02:48:56;2.90;99.90
5617;DHT22;2830;50.656;7.568;2023-04-03T02:51:23;2.80;99.90
5617;DHT22;2830;50.656;7.568;2023-04-03T02:53:50;2.80;99.90
5617;DHT22;2830;50.656;7.568;2023-04-03T02:56:17;2.70;99.90
5617;DHT22;2830;50.656;7.568;2023-04-03T02:58:45;2.70;99.90
5617;DHT22;2830;50.656;7.568;2023-04-03T03:01:12;2.60;99.90
5617;DHT22;2830;50.656;7.568;2023-04-03T03:03:39;2.50;99.90
5617;DHT22;2830;50.656;7.568;2023-04-03T03:06:14;2.40;99.90
5617;DHT22;2830;50.656;7.568;2023-04-03T03:08:42;2.30;99.90
5617;DHT22;2830;50.656;7.568;2023-04-03T03:11:09;2.20;99.90
5617;DHT22;2830;50.656;7.568;2023-04-03T03:13:36;2.10;99.90
5617;DHT22;2830;50.656;7.568;2023-04-03T03:16:03;2.00;99.90
5617;DHT22;2830;50.656;7.568;2023-04-03T03:18:30;2.00;99.90
5617;DHT22;2830;50.656;7.568;2023-04-03T03:20:58;1.90;99.90
5617;DHT22;2830;50.656;7.568;2023-04-03T03:23:27;1.80;99.90
5617;DHT22;2830;50.656;7.568;2023-04-03T03:25:59;1.70;99.90
5617;DHT22;2830;50.656;7.568;2023-04-03T03:28:26;1.70;99.90
5617;DHT22;2830;50.656;7.568;2023-04-03T03:30:53;1.60;99.90
5617;DHT22;2830;50.656;7.568;2023-04-03T03:33:19;1.50;99.90
5617;DHT22;2830;50.656;7.568;2023-04-03T03:35:46;1.40;99.90
5617;DHT22;2830;50.656;7.568;2023-04-03T03:38:13;1.40;99.90
5617;DHT22;2830;50.656;7.568;2023-04-03T03:40:39;1.30;99.90
5617;DHT22;2830;50.656;7.568;2023-04-03T03:43:06;1.30;99.90
5617;DHT22;2830;50.656;7.568;2023-04-03T03:45:33;1.20;99.90
5617;DHT22;2830;50.656;7.568;2023-04-03T03:48:01;1.10;99.90
5617;DHT22;2830;50.656;7.568;2023-04-03T03:50:28;1.00;99.90
5617;DHT22;2830;50.656;7.568;2023-04-03T03:52:54;1.00;99.90
5617;DHT22;2830;50.656;7.568;2023-04-03T03:55:21;1.00;99.90
5617;DHT22;2830;50.656;7.568;2023-04-03T03:57:48;0.80;99.90
5617;DHT22;2830;50.656;7.568;2023-04-03T04:00:15;0.80;99.90
5617;DHT22;2830;50.656;7.568;2023-04-03T04:02:43;0.80;99.90
5617;DHT22;2830;50.656;7.568;2023-04-03T04:05:10;0.70;99.90
5617;DHT22;2830;50.656;7.568;2023-04-03T04:07:36;0.70;99.90
5617;DHT22;2830;50.656;7.568;2023-04-03T04:10:04;0.70;99.90
5617;DHT22;2830;50.656;7.568;2023-04-03T04:12:31;0.60;99.90
5617;DHT22;2830;50.656;7.568;2023-04-03T04:14:57;0.60;99.90
5617;DHT22;2830;50.656;7.568;2023-04-03T04:17:24;0.60;99.90
5617;DHT22;2830;50.656;7.568;2023-04-03T04:19:51;0.60;99.90
5617;DHT22;2830;50.656;7.568;2023-04-03T04:22:17;0.50;99.90
5617;DHT22;2830;50.656;7.568;2023-04-03T04:24:44;0.60;99.90
5617;DHT22;2830;50.656;7.568;2023-04-03T04:27:11;0.50;99.90
5617;DHT22;2830;50.656;7.568;2023-04-03T04:29:37;0.50;99.90
5617;DHT22;2830;50.656;7.568;2023-04-03T04:32:04;0.30;99.90
5617;DHT22;2830;50.656;7.568;2023-04-03T04:34:31;0.30;99.90
5617;DHT22;2830;50.656;7.568;2023-04-03T04:36:58;0.30;99.90
5617;DHT22;2830;50.656;7.568;2023-04-03T04:39:24;0.30;99.90
5617;DHT22;2830;50.656;7.568;2023-04-03T04:41:51;0.30;99.90
5617;DHT22;2830;50.656;7.568;2023-04-03T04:44:18;0.30;99.90
5617;DHT22;2830;50.656;7.568;2023-04-03T04:46:45;0.30;99.90
5617;DHT22;2830;50.656;7.568;2023-04-03T04:49:12;0.30;99.90
5617;DHT22;2830;50.656;7.568;2023-04-03T04:51:38;0.20;99.90
5617;DHT22;2830;50.656;7.568;2023-04-03T04:54:17;0.20;99.90
5617;DHT22;2830;50.656;7.568;2023-04-03T04:56:44;0.10;99.90
5617;DHT22;2830;50.656;7.568;2023-04-03T04:59:11;0.10;99.90
5617;DHT22;2830;50.656;7.568;2023-04-03T05:01:38;0.20;99.90
5617;DHT22;2830;50.656;7.568;2023-04-03T05:04:04;0.20;99.90
5617;DHT22;2830;50.656;7.568;2023-04-03T05:06:31;0.20;99.90
5617;DHT22;2830;50.656;7.568;2023-04-03T05:08:58;0.30;99.90
5617;DHT22;2830;50.656;7.568;2023-04-03T05:11:25;0.20;99.90
5617;DHT22;2830;50.656;7.568;2023-04-03T05:13:52;0.20;99.90
5617;DHT22;2830;50.656;7.568;2023-04-03T05:16:19;0.20;99.90
5617;DHT22;2830;50.656;7.568;2023-04-03T05:18:46;0.20;99.90
5617;DHT22;2830;50.656;7.568;2023-04-03T05:21:12;0.20;99.90
5617;DHT22;2830;50.656;7.568;2023-04-03T05:23:39;0.20;99.90
5617;DHT22;2830;50.656;7.568;2023-04-03T05:26:06;0.20;99.90
5617;DHT22;2830;50.656;7.568;2023-04-03T05:28:32;0.10;99.90
5617;DHT22;2830;50.656;7.568;2023-04-03T05:30:59;0.20;99.90
5617;DHT22;2830;50.656;7.568;2023-04-03T05:33:26;0.20;99.90
5617;DHT22;2830;50.656;7.568;2023-04-03T05:35:54;0.20;99.90
5617;DHT22;2830;50.656;7.568;2023-04-03T05:38:21;0.30;99.90
5617;DHT22;2830;50.656;7.568;2023-04-03T05:40:47;0.30;99.90
5617;DHT22;2830;50.656;7.568;2023-04-03T05:43:14;0.30;99.90
5617;DHT22;2830;50.656;7.568;2023-04-03T05:45:42;0.30;99.90
5617;DHT22;2830;50.656;7.568;2023-04-03T05:48:11;0.40;99.90
5617;DHT22;2830;50.656;7.568;2023-04-03T05:50:39;0.50;99.90
5617;DHT22;2830;50.656;7.568;2023-04-03T05:53:15;0.50;99.90
5617;DHT22;2830;50.656;7.568;2023-04-03T05:55:43;0.60;99.90
5617;DHT22;2830;50.656;7.568;2023-04-03T05:58:09;0.70;99.90
5617;DHT22;2830;50.656;7.568;2023-04-03T06:00:37;0.80;99.90
5617;DHT22;2830;50.656;7.568;2023-04-03T06:03:04;0.90;99.90
5617;DHT22;2830;50.656;7.568;2023-04-03T06:05:30;1.00;99.90
5617;DHT22;2830;50.656;7.568;2023-04-03T06:07:57;1.10;99.90
5617;DHT22;2830;50.656;7.568;2023-04-03T06:10:30;1.10;99.90
5617;DHT22;2830;50.656;7.568;2023-04-03T06:12:56;1.30;99.90
5617;DHT22;2830;50.656;7.568;2023-04-03T06:15:23;1.30;99.90
5617;DHT22;2830;50.656;7.568;2023-04-03T06:17:50;1.40;99.90
5617;DHT22;2830;50.656;7.568;2023-04-03T06:20:17;1.50;99.90
5617;DHT22;2830;50.656;7.568;2023-04-03T06:22:44;1.50;99.90
5617;DHT22;2830;50.656;7.568;2023-04-03T06:25:14;1.70;99.90
5617;DHT22;2830;50.656;7.568;2023-04-03T06:27:41;1.90;99.90
5617;DHT22;2830;50.656;7.568;2023-04-03T06:30:08;2.30;99.40
5617;DHT22;2830;50.656;7.568;2023-04-03T06:32:34;2.70;97.90
5617;DHT22;2830;50.656;7.568;2023-04-03T06:35:01;3.10;96.90
5617;DHT22;2830;50.656;7.568;2023-04-03T06:37:28;3.50;95.40
5617;DHT22;2830;50.656;7.568;2023-04-03T06:39:56;3.60;94.90
5617;DHT22;2830;50.656;7.568;2023-04-03T06:42:23;3.70;94.70
5617;DHT22;2830;50.656;7.568;2023-04-03T06:44:50;3.50;94.80
5617;DHT22;2830;50.656;7.568;2023-04-03T06:47:18;3.60;94.80
5617;DHT22;2830;50.656;7.568;2023-04-03T06:49:45;3.60;94.70
5617;DHT22;2830;50.656;7.568;2023-04-03T06:52:11;3.70;93.70
5617;DHT22;2830;50.656;7.568;2023-04-03T06:54:40;3.80;93.70
5617;DHT22;2830;50.656;7.568;2023-04-03T06:57:07;4.00;92.70
5617;DHT22;2830;50.656;7.568;2023-04-03T06:59:34;4.10;91.80
5617;DHT22;2830;50.656;7.568;2023-04-03T07:02:03;4.30;92.10
5617;DHT22;2830;50.656;7.568;2023-04-03T07:04:31;4.30;91.30
5617;DHT22;2830;50.656;7.568;2023-04-03T07:06:58;4.50;91.00
5617;DHT22;2830;50.656;7.568;2023-04-03T07:09:24;4.70;90.90
5617;DHT22;2830;50.656;7.568;2023-04-03T07:11:51;4.90;90.10
5617;DHT22;2830;50.656;7.568;2023-04-03T07:14:18;4.90;88.20
5617;DHT22;2830;50.656;7.568;2023-04-03T07:16:44;5.00;88.20
5617;DHT22;2830;50.656;7.568;2023-04-03T07:19:11;5.20;89.40
5617;DHT22;2830;50.656;7.568;2023-04-03T07:21:38;5.70;86.70
5617;DHT22;2830;50.656;7.568;2023-04-03T07:24:05;6.10;83.00
5617;DHT22;2830;50.656;7.568;2023-04-03T07:26:34;6.30;81.80
5617;DHT22;2830;50.656;7.568;2023-04-03T07:29:00;6.60;78.40
5617;DHT22;2830;50.656;7.568;2023-04-03T07:31:28;7.00;76.70
5617;DHT22;2830;50.656;7.568;2023-04-03T07:33:55;7.20;76.80
5617;DHT22;2830;50.656;7.568;2023-04-03T07:36:22;7.90;74.40
5617;DHT22;2830;50.656;7.568;2023-04-03T07:38:49;8.40;71.10
5617;DHT22;2830;50.656;7.568;2023-04-03T07:41:17;8.60;69.40
5617;DHT22;2830;50.656;7.568;2023-04-03T07:43:44;8.80;67.30
5617;DHT22;2830;50.656;7.568;2023-04-03T07:46:11;9.20;66.20
5617;DHT22;2830;50.656;7.568;2023-04-03T07:48:38;9.30;64.10
5617;DHT22;2830;50.656;7.568;2023-04-03T07:51:05;9.10;63.70
5617;DHT22;2830;50.656;7.568;2023-04-03T07:53:32;9.40;63.60
5617;DHT22;2830;50.656;7.568;2023-04-03T07:55:59;9.30;62.60
5617;DHT22;2830;50.656;7.568;2023-04-03T07:58:26;9.60;62.90
5617;DHT22;2830;50.656;7.568;2023-04-03T08:00:53;9.50;63.40
5617;DHT22;2830;50.656;7.568;2023-04-03T08:03:20;9.50;61.50
5617;DHT22;2830;50.656;7.568;2023-04-03T08:05:48;9.80;61.60
5617;DHT22;2830;50.656;7.568;2023-04-03T08:08:18;9.80;61.60
5617;DHT22;2830;50.656;7.568;2023-04-03T08:10:54;9.90;60.90
5617;DHT22;2830;50.656;7.568;2023-04-03T08:13:21;10.10;60.10
5617;DHT22;2830;50.656;7.568;2023-04-03T08:15:48;10.00;60.20
5617;DHT22;2830;50.656;7.568;2023-04-03T08:18:15;10.60;58.60
5617;DHT22;2830;50.656;7.568;2023-04-03T08:20:42;10.40;57.20
5617;DHT22;2830;50.656;7.568;2023-04-03T08:23:10;10.10;57.50
5617;DHT22;2830;50.656;7.568;2023-04-03T08:33:02;10.60;58.60
5617;DHT22;2830;50.656;7.568;2023-04-03T08:35:30;10.20;59.50
5617;DHT22;2830;50.656;7.568;2023-04-03T08:37:56;10.50;58.80
5617;DHT22;2830;50.656;7.568;2023-04-03T08:40:23;10.90;55.70
5617;DHT22;2830;50.656;7.568;2023-04-03T08:43:27;11.40;54.40
5617;DHT22;2830;50.656;7.568;2023-04-03T08:45:57;11.40;53.90
5617;DHT22;2830;50.656;7.568;2023-04-03T08:48:31;11.40;54.40
5617;DHT22;2830;50.656;7.568;2023-04-03T08:51:03;11.10;54.80
5617;DHT22;2830;50.656;7.568;2023-04-03T08:53:42;11.80;53.00
5617;DHT22;2830;50.656;7.568;2023-04-03T08:56:10;12.40;53.10
5617;DHT22;2830;50.656;7.568;2023-04-03T08:58:52;12.60;50.60
5617;DHT22;2830;50.656;7.568;2023-04-03T09:01:35;12.60;51.30
5617;DHT22;2830;50.656;7.568;2023-04-03T09:04:09;12.40;50.10
5617;DHT22;2830;50.656;7.568;2023-04-03T09:06:38;12.50;50.00
5617;DHT22;2830;50.656;7.568;2023-04-03T09:12:28;12.60;48.40
5617;DHT22;2830;50.656;7.568;2023-04-03T09:17:51;12.80;48.90
5617;DHT22;2830;50.656;7.568;2023-04-03T09:20:43;13.80;48.90
5617;DHT22;2830;50.656;7.568;2023-04-03T09:23:18;14.10;45.00
5617;DHT22;2830;50.656;7.568;2023-04-03T09:25:46;14.20;44.70
5617;DHT22;2830;50.656;7.568;2023-04-03T09:28:12;13.90;45.80
5617;DHT22;2830;50.656;7.568;2023-04-03T09:30:39;12.60;46.00
5617;DHT22;2830;50.656;7.568;2023-04-03T09:33:06;12.70;47.10
5617;DHT22;2830;50.656;7.568;2023-04-03T09:35:36;13.60;47.00
5617;DHT22;2830;50.656;7.568;2023-04-03T09:40:46;14.70;43.00
5617;DHT22;2830;50.656;7.568;2023-04-03T09:43:28;14.30;42.90
5617;DHT22;2830;50.656;7.568;2023-04-03T09:45:56;13.00;45.10
5617;DHT22;2830;50.656;7.568;2023-04-03T09:49:00;13.40;45.70
5617;DHT22;2830;50.656;7.568;2023-04-03T09:51:35;13.70;44.70
5617;DHT22;2830;50.656;7.568;2023-04-03T09:54:37;13.70;43.60
5617;DHT22;2830;50.656;7.568;2023-04-03T09:57:11;14.90;45.10
5617;DHT22;2830;50.656;7.568;2023-04-03T09:59:44;15.20;42.60
5617;DHT22;2830;50.656;7.568;2023-04-03T10:04:41;15.00;41.90
5617;DHT22;2830;50.656;7.568;2023-04-03T10:07:32;15.10;40.50
5617;DHT22;2830;50.656;7.568;2023-04-03T10:10:10;15.00;40.90
5617;DHT22;2830;50.656;7.568;2023-04-03T10:12:43;16.10;40.40
5617;DHT22;2830;50.656;7.568;2023-04-03T10:15:15;16.00;38.80
5617;DHT22;2830;50.656;7.568;2023-04-03T10:17:58;15.40;38.90
5617;DHT22;2830;50.656;7.568;2023-04-03T10:20:40;15.40;40.40
5617;DHT22;2830;50.656;7.568;2023-04-03T10:23:26;15.30;39.50
5617;DHT22;2830;50.656;7.568;2023-04-03T10:26:10;16.00;39.00
5617;DHT22;2830;50.656;7.568;2023-04-03T10:29:06;16.20;39.60
5617;DHT22;2830;50.656;7.568;2023-04-03T10:34:33;16.30;38.00
5617;DHT22;2830;50.656;7.568;2023-04-03T10:37:22;16.30;37.70
5617;DHT22;2830;50.656;7.568;2023-04-03T10:40:01;16.30;39.30
5617;DHT22;2830;50.656;7.568;2023-04-03T10:50:56;15.70;38.90
5617;DHT22;2830;50.656;7.568;2023-04-03T10:53:44;16.30;37.70
5617;DHT22;2830;50.656;7.568;2023-04-03T10:59:17;17.40;39.40
5617;DHT22;2830;50.656;7.568;2023-04-03T11:01:58;17.10;37.80
5617;DHT22;2830;50.656;7.568;2023-04-03T11:04:28;17.70;37.10
5617;DHT22;2830;50.656;7.568;2023-04-03T11:07:23;17.90;35.80
5617;DHT22;2830;50.656;7.568;2023-04-03T11:09:55;17.60;35.10
5617;DHT22;2830;50.656;7.568;2023-04-03T11:12:33;17.20;36.50
5617;DHT22;2830;50.656;7.568;2023-04-03T11:15:03;17.80;33.80
5617;DHT22;2830;50.656;7.568;2023-04-03T11:17:37;18.10;35.20
5617;DHT22;2830;50.656;7.568;2023-04-03T11:20:19;17.20;36.80
5617;DHT22;2830;50.656;7.568;2023-04-03T11:22:51;18.10;34.60
5617;DHT22;2830;50.656;7.568;2023-04-03T11:25:22;19.30;33.40
5617;DHT22;2830;50.656;7.568;2023-04-03T11:30:23;17.10;34.70
5617;DHT22;2830;50.656;7.568;2023-04-03T11:35:47;18.30;34.10
5617;DHT22;2830;50.656;7.568;2023-04-03T11:38:26;18.10;31.70
5617;DHT22;2830;50.656;7.568;2023-04-03T11:40:54;17.80;31.60
5617;DHT22;2830;50.656;7.568;2023-04-03T11:43:26;18.70;32.80
5617;DHT22;2830;50.656;7.568;2023-04-03T11:51:38;18.00;31.00
5617;DHT22;2830;50.656;7.568;2023-04-03T11:53:49;18.10;30.50
5617;DHT22;2830;50.656;7.568;2023-04-03T12:01:54;17.50;32.00
5617;DHT22;2830;50.656;7.568;2023-04-03T12:04:25;18.60;31.50
5617;DHT22;2830;50.656;7.568;2023-04-03T12:07:16;18.20;31.30
5617;DHT22;2830;50.656;7.568;2023-04-03T12:12:32;19.10;31.20
5617;DHT22;2830;50.656;7.568;2023-04-03T12:15:18;19.20;31.50
5617;DHT22;2830;50.656;7.568;2023-04-03T12:17:45;19.80;31.80
5617;DHT22;2830;50.656;7.568;2023-04-03T12:25:51;18.00;33.00
5617;DHT22;2830;50.656;7.568;2023-04-03T12:28:18;17.80;32.50
5617;DHT22;2830;50.656;7.568;2023-04-03T12:30:45;18.20;33.30
5617;DHT22;2830;50.656;7.568;2023-04-03T12:33:31;18.10;30.30
5617;DHT22;2830;50.656;7.568;2023-04-03T12:36:08;17.60;32.70
5617;DHT22;2830;50.656;7.568;2023-04-03T12:41:54;18.20;33.30
5617;DHT22;2830;50.656;7.568;2023-04-03T12:44:52;17.10;32.30
5617;DHT22;2830;50.656;7.568;2023-04-03T12:47:26;16.30;34.10
5617;DHT22;2830;50.656;7.568;2023-04-03T12:49:54;16.00;34.10
5617;DHT22;2830;50.656;7.568;2023-04-03T12:52:41;15.90;36.60
5617;DHT22;2830;50.656;7.568;2023-04-03T12:55:18;15.70;35.10
5617;DHT22;2830;50.656;7.568;2023-04-03T12:57:47;14.60;36.30
5617;DHT22;2830;50.656;7.568;2023-04-03T13:00:32;14.00;37.60
5617;DHT22;2830;50.656;7.568;2023-04-03T13:03:02;13.80;36.00
5617;DHT22;2830;50.656;7.568;2023-04-03T13:05:30;14.10;37.00
5617;DHT22;2830;50.656;7.568;2023-04-03T13:08:01;13.80;38.90
5617;DHT22;2830;50.656;7.568;2023-04-03T13:10:31;13.50;37.30
5617;DHT22;2830;50.656;7.568;2023-04-03T13:13:08;13.00;38.80
5617;DHT22;2830;50.656;7.568;2023-04-03T13:15:44;12.90;39.00
5617;DHT22;2830;50.656;7.568;2023-04-03T13:18:32;13.10;39.20
5617;DHT22;2830;50.656;7.568;2023-04-03T13:21:15;12.70;39.90
5617;DHT22;2830;50.656;7.568;2023-04-03T13:23:46;12.30;39.50
5617;DHT22;2830;50.656;7.568;2023-04-03T13:26:17;12.10;41.60
5617;DHT22;2830;50.656;7.568;2023-04-03T13:28:45;12.10;41.40
5617;DHT22;2830;50.656;7.568;2023-04-03T13:34:09;12.00;41.70
5617;DHT22;2830;50.656;7.568;2023-04-03T13:36:44;12.30;46.20
5617;DHT22;2830;50.656;7.568;2023-04-03T13:41:50;12.20;41.30
5617;DHT22;2830;50.656;7.568;2023-04-03T13:46:55;11.90;41.30
5617;DHT22;2830;50.656;7.568;2023-04-03T13:49:37;11.80;43.00
5617;DHT22;2830;50.656;7.568;2023-04-03T13:52:29;11.70;42.60
5617;DHT22;2830;50.656;7.568;2023-04-03T13:55:11;11.30;45.20
5617;DHT22;2830;50.656;7.568;2023-04-03T13:58:16;10.90;44.30
5617;DHT22;2830;50.656;7.568;2023-04-03T14:01:00;10.90;44.20
5617;DHT22;2830;50.656;7.568;2023-04-03T14:06:20;10.40;47.00
5617;DHT22;2830;50.656;7.568;2023-04-03T14:08:47;10.30;46.00
5617;DHT22;2830;50.656;7.568;2023-04-03T14:11:19;10.40;47.70
5617;DHT22;2830;50.656;7.568;2023-04-03T14:13:48;10.90;46.50
5617;DHT22;2830;50.656;7.568;2023-04-03T14:16:16;11.00;45.80
5617;DHT22;2830;50.656;7.568;2023-04-03T14:18:45;10.80;44.00
5617;DHT22;2830;50.656;7.568;2023-04-03T14:21:14;10.60;44.90
5617;DHT22;2830;50.656;7.568;2023-04-03T14:23:41;10.60;46.10
5617;DHT22;2830;50.656;7.568;2023-04-03T14:26:20;10.60;46.00
5617;DHT22;2830;50.656;7.568;2023-04-03T14:28:51;10.40;45.60
5617;DHT22;2830;50.656;7.568;2023-04-03T14:31:19;10.50;46.90
5617;DHT22;2830;50.656;7.568;2023-04-03T14:33:47;10.60;45.80
5617;DHT22;2830;50.656;7.568;2023-04-03T14:36:25;10.60;48.00
5617;DHT22;2830;50.656;7.568;2023-04-03T14:38:53;10.40;47.20
5617;DHT22;2830;50.656;7.568;2023-04-03T14:41:22;10.30;46.80
5617;DHT22;2830;50.656;7.568;2023-04-03T14:43:50;10.20;45.50
5617;DHT22;2830;50.656;7.568;2023-04-03T14:46:37;10.00;45.70
5617;DHT22;2830;50.656;7.568;2023-04-03T14:49:24;10.00;46.90
5617;DHT22;2830;50.656;7.568;2023-04-03T14:51:52;9.90;48.00
5617;DHT22;2830;50.656;7.568;2023-04-03T14:54:21;9.90;47.60
5617;DHT22;2830;50.656;7.568;2023-04-03T14:56:52;9.80;47.50
5617;DHT22;2830;50.656;7.568;2023-04-03T14:59:19;9.60;47.80
5617;DHT22;2830;50.656;7.568;2023-04-03T15:01:47;9.60;47.30
5617;DHT22;2830;50.656;7.568;2023-04-03T15:04:18;9.50;48.00
5617;DHT22;2830;50.656;7.568;2023-04-03T15:06:46;9.60;48.30
5617;DHT22;2830;50.656;7.568;2023-04-03T15:09:34;9.60;46.00
5617;DHT22;2830;50.656;7.568;2023-04-03T15:12:00;9.70;51.30
5617;DHT22;2830;50.656;7.568;2023-04-03T15:14:29;9.70;47.80
5617;DHT22;2830;50.656;7.568;2023-04-03T15:17:05;9.70;47.50
5617;DHT22;2830;50.656;7.568;2023-04-03T15:19:41;9.80;46.90
5617;DHT22;2830;50.656;7.568;2023-04-03T15:22:18;9.60;46.40
5617;DHT22;2830;50.656;7.568;2023-04-03T15:24:45;9.70;48.70
5617;DHT22;2830;50.656;7.568;2023-04-03T15:27:13;9.60;47.90
5617;DHT22;2830;50.656;7.568;2023-04-03T15:29:42;9.50;47.60
5617;DHT22;2830;50.656;7.568;2023-04-03T15:32:09;9.40;49.60
5617;DHT22;2830;50.656;7.568;2023-04-03T15:34:37;9.30;49.40
5617;DHT22;2830;50.656;7.568;2023-04-03T15:37:05;9.20;47.10
5617;DHT22;2830;50.656;7.568;2023-04-03T15:39:32;9.10;47.60
5617;DHT22;2830;50.656;7.568;2023-04-03T15:41:59;9.00;48.80
5617;DHT22;2830;50.656;7.568;2023-04-03T15:44:35;9.00;48.00
5617;DHT22;2830;50.656;7.568;2023-04-03T15:47:02;9.00;48.90
5617;DHT22;2830;50.656;7.568;2023-04-03T15:49:30;9.10;48.00
5617;DHT22;2830;50.656;7.568;2023-04-03T15:51:57;9.10;47.70
5617;DHT22;2830;50.656;7.568;2023-04-03T15:54:23;9.00;47.60
5617;DHT22;2830;50.656;7.568;2023-04-03T15:56:52;9.00;48.60
5617;DHT22;2830;50.656;7.568;2023-04-03T15:59:19;8.90;48.50
5617;DHT22;2830;50.656;7.568;2023-04-03T17:30:29;8.70;48.30
5617;DHT22;2830;50.656;7.568;2023-04-03T17:32:55;7.30;52.70
5617;DHT22;2830;50.656;7.568;2023-04-03T17:35:22;7.20;53.20
5617;DHT22;2830;50.656;7.568;2023-04-03T17:37:49;7.10;53.80
5617;DHT22;2830;50.656;7.568;2023-04-03T17:40:16;7.00;53.50
5617;DHT22;2830;50.656;7.568;2023-04-03T17:42:44;7.00;53.50
5617;DHT22;2830;50.656;7.568;2023-04-03T17:45:11;6.80;54.10
5617;DHT22;2830;50.656;7.568;2023-04-03T17:47:37;6.70;52.60
5617;DHT22;2830;50.656;7.568;2023-04-03T17:50:05;6.70;53.80
5617;DHT22;2830;50.656;7.568;2023-04-03T17:52:32;6.70;53.60
5617;DHT22;2830;50.656;7.568;2023-04-03T17:54:59;6.70;54.00
5617;DHT22;2830;50.656;7.568;2023-04-03T17:57:26;6.60;53.40
5617;DHT22;2830;50.656;7.568;2023-04-03T17:59:52;6.50;54.40
5617;DHT22;2830;50.656;7.568;2023-04-03T18:02:19;6.50;55.60
5617;DHT22;2830;50.656;7.568;2023-04-03T18:04:46;6.40;55.00
5617;DHT22;2830;50.656;7.568;2023-04-03T18:07:13;6.30;55.10
5617;DHT22;2830;50.656;7.568;2023-04-03T18:09:39;6.20;56.00
5617;DHT22;2830;50.656;7.568;2023-04-03T18:12:08;6.20;56.60
5617;DHT22;2830;50.656;7.568;2023-04-03T18:14:36;6.10;57.70
5617;DHT22;2830;50.656;7.568;2023-04-03T18:17:03;6.10;59.00
5617;DHT22;2830;50.656;7.568;2023-04-03T18:19:30;5.90;60.70
5617;DHT22;2830;50.656;7.568;2023-04-03T18:22:01;5.80;60.20
5617;DHT22;2830;50.656;7.568;2023-04-03T18:24:31;5.80;63.70
5617;DHT22;2830;50.656;7.568;2023-04-03T18:27:02;5.70;59.80
5617;DHT22;2830;50.656;7.568;2023-04-03T18:29:33;5.70;60.50
5617;DHT22;2830;50.656;7.568;2023-04-03T18:32:01;5.60;59.20
5617;DHT22;2830;50.656;7.568;2023-04-03T18:34:30;5.60;57.90
5617;DHT22;2830;50.656;7.568;2023-04-03T18:36:58;5.50;57.80
5617;DHT22;2830;50.656;7.568;2023-04-03T18:39:25;5.50;57.00
5617;DHT22;2830;50.656;7.568;2023-04-03T18:41:52;5.50;58.40
5617;DHT22;2830;50.656;7.568;2023-04-03T18:44:22;5.40;57.90
5617;DHT22;2830;50.656;7.568;2023-04-03T18:46:51;5.40;59.00
5617;DHT22;2830;50.656;7.568;2023-04-03T18:49:19;5.30;57.50
5617;DHT22;2830;50.656;7.568;2023-04-03T18:51:48;5.30;59.00
5617;DHT22;2830;50.656;7.568;2023-04-03T18:54:15;5.20;59.70
5617;DHT22;2830;50.656;7.568;2023-04-03T18:56:42;5.20;60.40
5617;DHT22;2830;50.656;7.568;2023-04-03T18:59:08;5.10;59.30
5617;DHT22;2830;50.656;7.568;2023-04-03T19:01:35;5.00;62.10
5617;DHT22;2830;50.656;7.568;2023-04-03T19:04:03;5.00;60.70
5617;DHT22;2830;50.656;7.568;2023-04-03T19:06:31;4.90;59.40
5617;DHT22;2830;50.656;7.568;2023-04-03T19:08:58;4.90;60.80
5617;DHT22;2830;50.656;7.568;2023-04-03T19:11:25;4.80;63.40
5617;DHT22;2830;50.656;7.568;2023-04-03T19:13:55;4.80;62.60
5617;DHT22;2830;50.656;7.568;2023-04-03T19:16:40;4.70;62.10
5617;DHT22;2830;50.656;7.568;2023-04-03T19:19:07;4.60;66.60